Time;durP1;ratioP1;P1;durP2;ratioP2;P2;SDS_P1;SDS_P2;PMS_P1;PMS_P2;Temp;Humidity;BMP_temperature;BMP_pressure;BME280_temperature;BME280_humidity;BME280_pressure;Samples;Min_cycle;Max_cycle;Signal;HPM_P1;HPM_P2
2022/05/05 03:01:21;;;;;;;16.67;7.25;;;6.90;99.90;;;;;;5533680;23;20013;-82
2022/05/05 03:03:46;;;;;;;12.43;7.05;;;6.90;99.90;;;;;;4903674;29;20134;-83
2022/05/05 03:06:12;;;;;;;14.90;8.13;;;6.90;99.90;;;;;;4919094;29;20050;-82
2022/05/05 03:08:38;;;;;;;16.60;7.07;;;6.80;99.90;;;;;;4918661;29;20098;-83
2022/05/05 03:11:04;;;;;;;14.52;7.40;;;6.80;99.90;;;;;;4919202;29;20373;-82
2022/05/05 03:13:29;;;;;;;14.40;7.30;;;6.70;99.90;;;;;;4918754;29;20051;-83
2022/05/05 03:15:55;;;;;;;18.10;7.97;;;6.70;99.90;;;;;;4918817;29;20078;-83
2022/05/05 03:18:21;;;;;;;21.55;8.13;;;6.70;99.90;;;;;;4935833;29;20043;-82
2022/05/05 03:20:46;;;;;;;15.25;7.45;;;6.70;99.90;;;;;;4918876;29;20044;-82
2022/05/05 03:23:12;;;;;;;14.70;7.07;;;6.70;99.90;;;;;;4935701;29;20059;-83
2022/05/05 03:25:37;;;;;;;15.63;7.85;;;6.60;99.90;;;;;;4903147;29;20237;-82
2022/05/05 03:28:03;;;;;;;15.00;7.30;;;6.60;99.90;;;;;;4919031;29;20102;-81
2022/05/05 03:30:29;;;;;;;19.95;8.00;;;6.60;99.90;;;;;;4918365;29;20500;-82
2022/05/05 03:32:54;;;;;;;16.33;7.90;;;6.50;99.90;;;;;;4919818;29;20142;-83
2022/05/05 03:35:20;;;;;;;17.00;7.40;;;6.50;99.90;;;;;;4922376;29;20404;-83
2022/05/05 03:37:46;;;;;;;15.27;7.72;;;6.50;99.90;;;;;;4921899;29;20079;-82
2022/05/05 03:40:12;;;;;;;15.55;7.57;;;6.50;99.90;;;;;;4921719;29;20475;-82
2022/05/05 03:42:37;;;;;;;15.20;9.27;;;6.50;99.90;;;;;;4939009;29;20051;-82
2022/05/05 03:45:03;;;;;;;18.48;8.85;;;6.50;99.90;;;;;;4921862;29;20043;-83
2022/05/05 03:47:29;;;;;;;20.48;8.52;;;6.50;99.90;;;;;;4922000;29;20051;-82
2022/05/05 03:49:55;;;;;;;16.67;8.45;;;6.50;99.90;;;;;;4921617;29;20492;-83
2022/05/05 03:52:20;;;;;;;20.23;8.82;;;6.50;99.90;;;;;;4921373;29;20052;-82
2022/05/05 03:54:46;;;;;;;12.07;6.80;;;6.40;99.90;;;;;;4921591;29;20054;-82
2022/05/05 03:57:11;;;;;;;11.23;7.20;;;6.40;99.90;;;;;;4921439;29;20157;-80
2022/05/05 03:59:37;;;;;;;14.75;7.82;;;6.40;99.90;;;;;;4938679;29;20373;-83
2022/05/05 04:02:03;;;;;;;17.33;7.55;;;6.30;99.90;;;;;;4938384;29;20069;-82
2022/05/05 04:04:28;;;;;;;20.38;7.85;;;6.30;99.90;;;;;;4905903;29;20488;-82
2022/05/05 04:06:54;;;;;;;18.52;7.43;;;6.30;99.90;;;;;;4921534;29;20059;-82
2022/05/05 04:09:20;;;;;;;15.93;7.60;;;6.20;99.90;;;;;;4921228;29;20052;-83
2022/05/05 04:11:45;;;;;;;14.65;8.07;;;6.20;99.90;;;;;;4920984;29;20043;-83
2022/05/05 04:14:12;;;;;;;16.35;7.93;;;6.20;99.90;;;;;;4939137;29;20043;-82
2022/05/05 04:16:38;;;;;;;16.27;7.72;;;6.20;99.90;;;;;;4938524;29;20356;-83
2022/05/05 04:19:04;;;;;;;16.45;8.77;;;6.30;99.90;;;;;;4921282;29;20044;-83
2022/05/05 04:21:31;;;;;;;19.52;9.48;;;6.30;99.90;;;;;;4938510;29;20054;-82
2022/05/05 04:23:57;;;;;;;14.40;8.73;;;6.30;99.90;;;;;;4938130;29;20091;-82
2022/05/05 04:26:24;;;;;;;14.77;8.35;;;6.30;99.90;;;;;;4921275;29;20392;-82
2022/05/05 04:28:50;;;;;;;21.38;9.52;;;6.20;99.90;;;;;;4921012;29;20560;-83
2022/05/05 04:31:18;;;;;;;13.93;7.53;;;6.20;99.90;;;;;;4905381;29;20049;-83
2022/05/05 04:33:44;;;;;;;13.95;7.10;;;6.20;99.90;;;;;;4920846;29;20043;-81
2022/05/05 04:36:11;;;;;;;16.95;7.30;;;6.10;99.90;;;;;;4920809;29;20048;-83
2022/05/05 04:38:37;;;;;;;17.55;7.65;;;6.10;99.90;;;;;;4920773;29;20055;-82
2022/05/05 04:41:03;;;;;;;13.77;7.68;;;6.00;99.90;;;;;;4920972;29;20047;-82
2022/05/05 04:43:29;;;;;;;13.40;6.82;;;6.00;99.90;;;;;;4937716;29;20040;-82
2022/05/05 04:45:54;;;;;;;17.35;8.45;;;6.00;99.90;;;;;;4905935;29;20372;-82
2022/05/05 04:48:20;;;;;;;16.85;8.80;;;6.10;99.90;;;;;;4937771;29;20115;-83
2022/05/05 04:50:45;;;;;;;18.52;8.48;;;6.10;99.90;;;;;;4938051;29;20047;-82
2022/05/05 04:53:11;;;;;;;19.70;8.55;;;6.10;99.90;;;;;;4920712;29;20047;-82
2022/05/05 04:55:36;;;;;;;18.27;8.30;;;6.00;99.90;;;;;;4904872;29;20132;-82
2022/05/05 04:58:02;;;;;;;14.30;8.00;;;6.00;99.90;;;;;;4920415;29;20126;-82
2022/05/05 05:00:29;;;;;;;17.52;8.95;;;6.10;99.90;;;;;;4920361;29;20040;-82
2022/05/05 05:02:58;;;;;;;16.48;9.13;;;6.10;99.90;;;;;;4920758;29;20444;-82
2022/05/05 05:05:23;;;;;;;23.15;9.88;;;6.10;99.90;;;;;;4920587;29;20452;-81
2022/05/05 05:07:49;;;;;;;16.67;8.65;;;6.10;99.90;;;;;;4920229;29;20075;-83
2022/05/05 05:10:15;;;;;;;14.93;8.05;;;6.00;99.90;;;;;;4920324;29;20047;-82
2022/05/05 05:12:41;;;;;;;16.27;8.70;;;6.10;99.90;;;;;;4937659;29;20148;-83
2022/05/05 05:15:07;;;;;;;20.80;9.13;;;6.00;99.90;;;;;;4920273;29;20438;-83
2022/05/05 05:17:33;;;;;;;18.33;8.75;;;6.00;99.90;;;;;;4937799;29;20087;-82
2022/05/05 05:19:59;;;;;;;14.10;7.93;;;6.00;99.90;;;;;;4920449;29;20036;-83
2022/05/05 05:22:24;;;;;;;16.15;8.13;;;6.00;99.90;;;;;;4920005;29;20403;-83
2022/05/05 05:24:50;;;;;;;16.50;8.63;;;6.00;99.90;;;;;;4920115;29;20036;-82
2022/05/05 05:27:16;;;;;;;20.85;9.68;;;6.00;99.90;;;;;;4920131;29;20043;-82
2022/05/05 05:29:42;;;;;;;22.20;11.13;;;6.00;99.90;;;;;;4920273;29;20054;-81
2022/05/05 05:32:08;;;;;;;18.88;10.18;;;6.00;99.90;;;;;;4937410;29;20031;-83
2022/05/05 05:34:33;;;;;;;18.27;9.80;;;6.10;99.90;;;;;;4920074;29;20104;-83
2022/05/05 05:36:59;;;;;;;24.92;9.82;;;6.10;99.90;;;;;;4937198;29;20036;-83
2022/05/05 05:39:24;;;;;;;18.85;9.90;;;6.10;99.90;;;;;;4919983;29;20047;-82
2022/05/05 05:41:51;;;;;;;22.70;10.27;;;6.20;99.90;;;;;;4936959;29;20043;-82
2022/05/05 05:44:17;;;;;;;20.38;10.13;;;6.30;99.90;;;;;;4920107;29;20381;-83
2022/05/05 05:46:43;;;;;;;24.05;10.30;;;6.30;99.90;;;;;;4937164;29;20040;-84
2022/05/05 05:49:09;;;;;;;21.52;11.27;;;6.40;99.90;;;;;;4936970;29;20046;-82
2022/05/05 05:51:35;;;;;;;26.13;11.85;;;6.50;99.90;;;;;;4920041;29;20047;-81
2022/05/05 05:54:01;;;;;;;17.75;10.70;;;6.60;99.90;;;;;;4920399;29;20043;-84
2022/05/05 05:56:27;;;;;;;20.42;11.05;;;6.70;99.90;;;;;;4926708;29;20048;-82
2022/05/05 05:58:53;;;;;;;20.25;10.98;;;6.80;99.90;;;;;;4938964;29;20036;-81
2022/05/05 06:01:18;;;;;;;21.80;11.98;;;6.90;99.90;;;;;;4924869;29;20376;-83
2022/05/05 06:03:53;;;;;;;28.33;12.18;;;7.00;99.90;;;;;;4920153;29;20103;-82
2022/05/05 06:06:24;;;;;;;20.65;11.27;;;7.10;99.90;;;;;;4920114;29;20051;-83
2022/05/05 06:08:50;;;;;;;20.73;11.45;;;7.20;99.90;;;;;;4904476;29;20043;-81
2022/05/05 06:11:19;;;;;;;31.63;12.27;;;7.40;99.90;;;;;;4936881;29;20071;-83
2022/05/05 06:13:44;;;;;;;20.25;11.20;;;7.50;99.90;;;;;;4919893;29;20052;-82
2022/05/05 06:16:10;;;;;;;24.63;12.70;;;7.70;99.90;;;;;;4919357;29;20443;-82
2022/05/05 06:18:37;;;;;;;21.00;11.27;;;7.80;99.90;;;;;;4936460;29;20040;-82
2022/05/05 06:21:03;;;;;;;19.95;11.07;;;8.00;99.90;;;;;;4919140;29;20127;-84
2022/05/05 06:23:28;;;;;;;27.63;11.25;;;8.10;99.90;;;;;;4903554;29;20081;-84
2022/05/05 06:25:54;;;;;;;20.98;9.77;;;8.40;99.90;;;;;;4919218;29;20098;-83
2022/05/05 06:28:20;;;;;;;22.15;9.77;;;8.60;99.90;;;;;;4936699;29;20118;-83
2022/05/05 06:30:45;;;;;;;20.00;9.75;;;8.90;99.90;;;;;;4919394;29;20039;-83
2022/05/05 06:33:11;;;;;;;18.45;9.73;;;9.10;99.90;;;;;;4905687;29;20071;-84
2022/05/05 06:35:36;;;;;;;18.40;9.20;;;9.30;99.90;;;;;;4904191;29;20047;-84
2022/05/05 06:38:02;;;;;;;23.67;10.23;;;9.50;99.90;;;;;;4919271;29;20604;-84
2022/05/05 06:40:28;;;;;;;25.80;10.98;;;9.80;99.90;;;;;;4919094;29;20056;-83
2022/05/05 06:42:54;;;;;;;18.45;9.18;;;9.90;99.90;;;;;;4936361;29;20036;-83
2022/05/05 06:45:20;;;;;;;21.13;9.20;;;10.10;99.90;;;;;;4919521;29;20103;-83
2022/05/05 06:47:45;;;;;;;23.10;8.45;;;10.20;99.90;;;;;;4919518;29;20527;-83
2022/05/05 06:50:11;;;;;;;16.17;7.70;;;10.40;99.90;;;;;;4919280;29;20048;-84
2022/05/05 06:52:37;;;;;;;16.92;8.45;;;10.50;99.90;;;;;;4903451;29;20082;-84
2022/05/05 06:55:04;;;;;;;16.50;8.23;;;10.60;99.90;;;;;;4936186;29;20040;-83
2022/05/05 06:57:30;;;;;;;26.33;8.70;;;10.70;99.90;;;;;;4919282;29;20145;-85
2022/05/05 06:59:55;;;;;;;17.55;8.23;;;10.80;99.90;;;;;;4919146;29;20134;-84
2022/05/05 07:02:22;;;;;;;17.83;7.85;;;10.90;99.90;;;;;;4903563;29;20075;-81
2022/05/05 07:07:31;;;;;;;18.65;8.52;;;11.00;99.90;;;;;;4920177;29;20044;-85
2022/05/05 07:12:43;;;;;;;17.65;7.90;;;11.20;99.90;;;;;;4940077;29;20428;-84
2022/05/05 07:15:09;;;;;;;17.25;7.68;;;11.30;99.90;;;;;;4922389;29;20055;-82
2022/05/05 07:17:35;;;;;;;13.85;7.75;;;11.30;99.90;;;;;;4922523;29;20055;-82
2022/05/05 07:20:00;;;;;;;17.35;8.57;;;11.40;99.90;;;;;;4922099;29;20043;-83
2022/05/05 07:22:26;;;;;;;17.92;7.88;;;11.50;99.90;;;;;;4939146;29;20436;-81
2022/05/05 07:24:51;;;;;;;21.20;8.82;;;11.60;99.90;;;;;;4922235;29;20447;-82
2022/05/05 07:27:17;;;;;;;96.75;14.15;;;11.70;99.90;;;;;;4922280;29;20043;-82
2022/05/05 07:29:43;;;;;;;37.97;9.75;;;11.80;99.90;;;;;;4922408;29;20047;-83
2022/05/05 07:32:10;;;;;;;13.07;7.85;;;11.90;99.90;;;;;;4921974;29;20055;-83
2022/05/05 07:34:35;;;;;;;14.30;7.20;;;12.00;99.90;;;;;;4922086;29;20067;-85
2022/05/05 07:37:02;;;;;;;17.98;8.15;;;12.00;99.90;;;;;;4921781;29;20044;-82
2022/05/05 07:39:27;;;;;;;16.20;7.32;;;12.10;99.90;;;;;;4921754;29;20051;-83
2022/05/05 07:41:53;;;;;;;15.25;6.82;;;12.20;99.90;;;;;;4921772;29;20040;-84
2022/05/05 07:44:19;;;;;;;16.15;7.80;;;12.20;99.90;;;;;;4922246;29;20047;-83
2022/05/05 07:46:44;;;;;;;18.13;7.20;;;12.20;99.90;;;;;;4906232;29;20043;-83
2022/05/05 07:49:10;;;;;;;11.85;7.57;;;12.20;99.90;;;;;;4921915;29;20048;-83
2022/05/05 07:51:36;;;;;;;16.77;7.70;;;12.30;99.90;;;;;;4921508;29;20040;-83
2022/05/05 07:56:46;;;;;;;13.40;6.78;;;12.40;99.90;;;;;;4921703;29;20055;-81
2022/05/05 07:59:12;;;;;;;16.15;6.68;;;12.50;99.90;;;;;;4921752;29;20073;-83
2022/05/05 08:01:38;;;;;;;15.88;7.88;;;12.60;99.90;;;;;;4921531;29;20042;-82
2022/05/05 08:04:04;;;;;;;18.02;7.47;;;12.70;99.90;;;;;;4921135;29;20062;-81
2022/05/05 08:06:30;;;;;;;15.05;7.03;;;12.80;99.90;;;;;;4929019;29;20043;-83
2022/05/05 08:08:56;;;;;;;15.52;7.15;;;12.80;99.90;;;;;;4940302;29;20070;-83
2022/05/05 08:11:22;;;;;;;22.23;8.13;;;12.90;99.90;;;;;;4940254;29;20043;-82
2022/05/05 08:13:47;;;;;;;14.15;6.65;;;13.00;99.90;;;;;;4940440;29;20081;-86
2022/05/05 08:16:13;;;;;;;14.55;7.28;;;13.00;99.90;;;;;;4957594;29;20071;-85
2022/05/05 08:18:39;;;;;;;16.77;7.72;;;13.10;99.90;;;;;;4939636;29;20082;-84
2022/05/05 08:21:05;;;;;;;20.30;7.28;;;13.20;99.90;;;;;;4940035;29;20093;-85
2022/05/05 08:23:32;;;;;;;18.48;7.78;;;13.30;99.90;;;;;;4957810;29;20106;-85
2022/05/05 08:28:42;;;;;;;11.90;6.57;;;13.60;99.90;;;;;;4957246;29;20084;-85
2022/05/05 08:31:10;;;;;;;90.28;10.13;;;13.80;99.90;;;;;;4940569;29;20087;-84
2022/05/05 08:33:38;;;;;;;21.80;5.95;;;13.90;99.90;;;;;;4940688;29;20047;-85
2022/05/05 08:36:05;;;;;;;11.23;4.45;;;14.00;99.90;;;;;;4940400;29;20524;-85
2022/05/05 08:38:31;;;;;;;13.90;5.07;;;14.10;99.90;;;;;;4940209;29;20155;-84
2022/05/05 08:40:57;;;;;;;10.50;5.03;;;14.20;99.90;;;;;;4940563;29;20039;-83
2022/05/05 08:43:23;;;;;;;12.27;5.30;;;14.30;99.90;;;;;;4939783;29;20054;-84
2022/05/05 08:45:50;;;;;;;11.52;4.57;;;14.40;99.90;;;;;;4939853;29;20114;-83
2022/05/05 08:48:17;;;;;;;10.40;4.70;;;14.40;99.90;;;;;;4957152;29;20040;-84
2022/05/05 08:50:46;;;;;;;10.80;4.88;;;14.50;99.90;;;;;;4939778;29;20546;-83
2022/05/05 08:53:14;;;;;;;11.77;4.80;;;14.60;99.90;;;;;;4939601;29;20090;-83
2022/05/05 08:55:41;;;;;;;103.97;14.60;;;14.60;99.90;;;;;;4939466;29;20050;-83
2022/05/05 08:58:06;;;;;;;14.60;5.50;;;14.70;99.90;;;;;;4939546;29;20047;-82
2022/05/05 09:00:32;;;;;;;8.95;4.50;;;14.90;99.90;;;;;;4938958;29;20105;-81
2022/05/05 09:03:04;;;;;;;9.25;4.05;;;15.00;99.90;;;;;;4939013;29;20031;-83
2022/05/05 09:05:48;;;;;;;12.52;4.90;;;15.20;99.90;;;;;;4939516;29;20094;-83
2022/05/05 09:08:25;;;;;;;8.30;4.85;;;15.60;99.90;;;;;;4939350;29;20062;-81
2022/05/05 09:10:52;;;;;;;12.02;5.57;;;15.90;99.90;;;;;;4939033;29;20487;-82
2022/05/05 09:13:30;;;;;;;10.93;5.38;;;15.90;99.90;;;;;;4923314;29;20043;-84
2022/05/05 09:15:56;;;;;;;9.32;5.53;;;15.90;99.90;;;;;;4923296;29;20048;-83
2022/05/05 09:18:25;;;;;;;10.20;5.47;;;15.90;99.90;;;;;;4956545;29;20050;-83
2022/05/05 09:20:51;;;;;;;13.02;7.05;;;16.10;99.90;;;;;;4956682;29;20043;-82
2022/05/05 09:23:32;;;;;;;14.07;6.72;;;16.30;99.90;;;;;;4938940;29;20058;-82
2022/05/05 09:25:59;;;;;;;12.45;6.00;;;16.50;99.90;;;;;;4938442;29;20050;-83
2022/05/05 09:28:28;;;;;;;11.57;6.00;;;16.60;99.90;;;;;;4939365;29;20039;-82
2022/05/05 09:30:54;;;;;;;12.82;6.43;;;16.70;99.90;;;;;;4938392;29;20043;-82
2022/05/05 09:33:40;;;;;;;13.88;6.80;;;16.60;99.90;;;;;;4938984;29;20058;-83
2022/05/05 09:36:09;;;;;;;10.18;5.65;;;16.80;99.90;;;;;;4956339;29;20051;-83
2022/05/05 09:38:59;;;;;;;12.95;6.20;;;16.70;99.90;;;;;;4956101;29;20042;-83
2022/05/05 09:41:28;;;;;;;10.55;5.80;;;16.80;99.90;;;;;;4956228;29;20051;-83
2022/05/05 09:43:55;;;;;;;7.88;4.85;;;16.90;99.90;;;;;;4922700;29;20083;-83
2022/05/05 09:46:26;;;;;;;10.70;6.00;;;17.00;99.90;;;;;;4955743;29;20044;-84
2022/05/05 09:49:07;;;;;;;9.52;5.57;;;17.00;99.90;;;;;;4955671;29;20035;-83
2022/05/05 09:51:40;;;;;;;9.10;5.55;;;17.00;99.90;;;;;;4938439;29;20510;-83
2022/05/05 09:59:40;;;;;;;10.63;6.38;;;17.30;99.90;;;;;;4938309;29;20069;-83
2022/05/05 10:04:00;;;;;;;9.98;6.32;;;17.30;99.90;;;;;;4938043;29;20058;-82
2022/05/05 10:05:15;;;;;;;10.65;5.88;;;17.40;99.90;;;;;;4935288;29;20591;-83
2022/05/05 10:07:44;;;;;;;8.73;5.68;;;17.30;99.90;;;;;;4936533;29;20087;-83
2022/05/05 10:10:21;;;;;;;12.07;6.43;;;17.10;99.90;;;;;;4903962;29;20118;-83
2022/05/05 10:12:48;;;;;;;11.73;6.10;;;17.10;99.90;;;;;;4919074;29;20123;-85
2022/05/05 10:15:14;;;;;;;11.20;6.22;;;17.20;99.90;;;;;;4904252;29;20382;-82
2022/05/05 10:17:40;;;;;;;9.82;6.18;;;17.10;99.90;;;;;;4904459;29;20046;-81
2022/05/05 10:20:06;;;;;;;11.45;6.25;;;17.30;99.90;;;;;;4919632;29;20123;-83
2022/05/05 10:22:59;;;;;;;10.07;6.35;;;17.40;99.90;;;;;;4937138;29;20031;-82
2022/05/05 10:25:32;;;;;;;9.35;6.00;;;17.50;99.90;;;;;;4911651;29;20127;-83
2022/05/05 10:27:59;;;;;;;11.93;6.40;;;17.50;99.90;;;;;;4918914;29;20080;-82
2022/05/05 10:30:36;;;;;;;11.35;5.80;;;17.40;99.90;;;;;;4918846;29;20067;-81
2022/05/05 10:33:08;;;;;;;9.80;6.35;;;17.50;99.90;;;;;;4919596;29;20145;-82
2022/05/05 10:35:47;;;;;;;11.13;6.20;;;17.60;99.90;;;;;;4919261;29;20048;-82
2022/05/05 10:38:40;;;;;;;14.05;6.88;;;17.50;99.90;;;;;;4936212;29;20043;-82
2022/05/05 10:41:34;;;;;;;13.02;7.20;;;17.50;99.90;;;;;;4919625;29;20404;-83
2022/05/05 10:44:25;;;;;;;9.45;5.90;;;17.60;99.90;;;;;;4910031;29;20044;-83
2022/05/05 10:47:03;;;;;;;13.00;6.15;;;17.60;99.90;;;;;;4925124;29;20130;-83
2022/05/05 10:52:09;;;;;;;11.77;6.07;;;17.40;99.90;;;;;;4928853;29;20567;-82
2022/05/05 10:54:40;;;;;;;9.05;6.10;;;17.70;99.90;;;;;;4930726;29;20134;-84
2022/05/05 10:57:24;;;;;;;10.50;6.35;;;18.00;99.90;;;;;;4937700;29;20466;-83
2022/05/05 11:00:06;;;;;;;11.35;6.95;;;18.20;99.90;;;;;;4945848;29;20079;-84
2022/05/05 11:02:33;;;;;;;11.88;7.10;;;18.30;99.90;;;;;;4954339;29;20046;-83
2022/05/05 11:05:27;;;;;;;10.25;6.75;;;18.50;99.90;;;;;;4926915;29;20407;-83
2022/05/05 11:08:19;;;;;;;13.85;8.02;;;18.60;99.90;;;;;;4926694;29;20075;-84
2022/05/05 11:11:40;;;;;;;13.52;8.38;;;18.70;99.90;;;;;;4915366;29;20055;-82
2022/05/05 11:13:37;;;;;;;12.68;8.00;;;18.70;99.90;;;;;;4925189;29;20373;-82
2022/05/05 11:22:14;;;;;;;13.13;8.18;;;18.70;99.90;;;;;;4924563;29;20051;-83
2022/05/05 11:24:44;;;;;;;10.85;6.95;;;18.60;99.90;;;;;;4909805;29;20065;-82
2022/05/05 11:27:21;;;;;;;13.10;7.05;;;18.70;99.90;;;;;;4941937;29;20477;-82
2022/05/05 11:29:57;;;;;;;8.73;6.50;;;18.60;99.90;;;;;;4924692;29;20047;-83
2022/05/05 11:32:33;;;;;;;12.57;6.97;;;18.80;99.90;;;;;;4908953;29;20058;-82
2022/05/05 11:35:00;;;;;;;11.60;6.43;;;19.20;99.90;;;;;;4909361;29;20107;-86
2022/05/05 11:37:27;;;;;;;10.75;6.55;;;19.50;99.90;;;;;;4924754;29;20496;-82
2022/05/05 11:39:52;;;;;;;10.75;6.25;;;19.50;99.10;;;;;;4924431;29;20493;-82
2022/05/05 11:42:19;;;;;;;10.10;7.03;;;19.60;98.80;;;;;;4925242;29;20050;-83
2022/05/05 11:44:46;;;;;;;9.20;6.10;;;19.70;97.90;;;;;;4924782;29;20051;-83
2022/05/05 11:47:19;;;;;;;11.13;6.45;;;19.80;98.40;;;;;;4924996;29;20062;-83
2022/05/05 11:49:47;;;;;;;12.32;6.75;;;20.00;97.70;;;;;;4942024;29;20039;-84
2022/05/05 11:52:20;;;;;;;10.85;6.45;;;20.20;97.40;;;;;;4924767;29;20061;-83
2022/05/05 11:54:55;;;;;;;13.43;7.40;;;20.40;97.50;;;;;;4921328;29;20058;-82
2022/05/05 11:57:35;;;;;;;11.38;6.80;;;20.60;96.90;;;;;;4921963;29;20161;-82
2022/05/05 12:02:47;;;;;;;10.02;6.05;;;21.10;97.40;;;;;;4921562;29;20429;-83
2022/05/05 12:05:13;;;;;;;8.57;5.97;;;21.30;96.90;;;;;;4921330;29;20058;-83
2022/05/05 12:07:44;;;;;;;9.23;6.07;;;21.60;95.80;;;;;;4905472;29;20071;-83
2022/05/05 12:10:10;;;;;;;11.18;6.20;;;21.70;94.90;;;;;;4938408;29;20182;-83
2022/05/05 12:12:39;;;;;;;13.07;6.63;;;21.90;94.60;;;;;;4938421;29;20047;-83
2022/05/05 12:15:06;;;;;;;8.27;5.50;;;22.10;93.80;;;;;;4921385;29;20154;-83
2022/05/05 12:17:41;;;;;;;10.57;6.25;;;22.30;94.10;;;;;;4921466;29;20169;-82
2022/05/05 12:20:09;;;;;;;12.40;5.38;;;22.10;92.00;;;;;;4921507;29;20047;-83
2022/05/05 12:22:40;;;;;;;9.98;6.45;;;22.00;91.70;;;;;;4920872;29;20108;-82
2022/05/05 12:25:14;;;;;;;9.23;5.97;;;21.70;90.90;;;;;;4938430;29;20099;-83
2022/05/05 12:27:41;;;;;;;11.82;5.75;;;21.30;91.50;;;;;;4921448;29;20047;-83
2022/05/05 12:30:09;;;;;;;9.55;5.72;;;21.20;92.00;;;;;;4921190;29;20514;-83
2022/05/05 12:32:34;;;;;;;8.38;5.03;;;21.10;91.30;;;;;;4920611;29;20040;-83
2022/05/05 12:35:06;;;;;;;14.93;6.47;;;20.80;91.70;;;;;;4920565;29;20163;-84
2022/05/05 12:37:31;;;;;;;9.52;5.82;;;20.90;91.70;;;;;;4920717;29;20103;-83
2022/05/05 12:40:01;;;;;;;9.73;6.32;;;20.60;91.40;;;;;;4920681;29;20036;-83
2022/05/05 12:42:45;;;;;;;12.45;5.85;;;20.70;91.50;;;;;;4920855;29;20051;-83
2022/05/05 12:45:20;;;;;;;9.27;5.55;;;20.80;92.00;;;;;;4920399;29;20040;-83
2022/05/05 12:47:49;;;;;;;7.82;5.60;;;20.60;91.10;;;;;;4920736;29;20078;-83
2022/05/05 12:50:35;;;;;;;10.48;5.45;;;20.80;91.40;;;;;;4904582;29;20047;-83
2022/05/05 12:59:36;;;;;;;9.32;5.90;;;21.10;90.60;;;;;;4920474;29;20047;-84
2022/05/05 13:01:36;;;;;;;14.00;6.07;;;21.10;89.30;;;;;;4904196;29;20051;-83
2022/05/05 13:04:08;;;;;;;10.10;6.10;;;21.40;90.80;;;;;;4920207;29;20055;-82
2022/05/05 13:06:38;;;;;;;11.88;6.35;;;21.40;91.50;;;;;;4936680;29;20040;-82
2022/05/05 13:09:08;;;;;;;9.15;6.07;;;21.40;90.70;;;;;;4920570;29;20169;-83
2022/05/05 13:11:38;;;;;;;12.48;6.13;;;21.40;91.20;;;;;;4920035;29;20079;-82
2022/05/05 13:14:04;;;;;;;11.00;6.30;;;21.30;91.00;;;;;;4937089;29;20036;-83
2022/05/05 13:16:31;;;;;;;9.80;6.15;;;21.10;91.10;;;;;;4937661;29;20196;-82
2022/05/05 13:19:02;;;;;;;10.55;6.60;;;21.00;90.10;;;;;;4924724;29;20126;-81
2022/05/05 13:21:28;;;;;;;11.65;7.00;;;20.80;90.80;;;;;;4923251;29;20063;-83
2022/05/05 13:23:54;;;;;;;11.73;7.53;;;20.80;91.20;;;;;;4919736;29;20040;-83
2022/05/05 13:26:20;;;;;;;13.40;7.45;;;20.60;91.60;;;;;;4919791;29;20119;-82
2022/05/05 13:28:46;;;;;;;10.02;6.05;;;20.80;91.70;;;;;;4919880;29;20162;-82
2022/05/05 13:31:11;;;;;;;9.98;5.85;;;21.10;91.60;;;;;;4919829;29;20519;-83
2022/05/05 13:33:37;;;;;;;11.07;6.20;;;21.10;91.00;;;;;;4919446;29;20044;-83
2022/05/05 13:36:03;;;;;;;9.55;5.95;;;21.10;90.70;;;;;;4919554;29;20044;-82
2022/05/05 13:38:29;;;;;;;10.20;6.93;;;21.50;90.40;;;;;;4920723;29;20205;-83
2022/05/05 13:40:58;;;;;;;10.95;6.60;;;21.60;90.20;;;;;;4936786;29;20103;-83
2022/05/05 13:43:23;;;;;;;10.80;7.32;;;21.40;90.40;;;;;;4936700;29;20071;-82
2022/05/05 13:45:49;;;;;;;11.13;7.40;;;21.20;90.20;;;;;;4919876;29;20040;-83
2022/05/05 13:48:15;;;;;;;9.10;6.25;;;21.00;90.40;;;;;;4919552;29;20251;-85
2022/05/05 13:50:42;;;;;;;11.45;6.47;;;20.90;90.20;;;;;;4919356;29;20050;-82
2022/05/05 13:53:07;;;;;;;14.05;6.88;;;20.70;90.50;;;;;;4919334;29;20044;-82
2022/05/05 13:55:34;;;;;;;13.32;6.97;;;20.80;90.90;;;;;;4936389;29;20043;-82
2022/05/05 13:58:01;;;;;;;12.50;6.75;;;20.80;90.80;;;;;;4919393;29;20055;-83
2022/05/05 14:00:28;;;;;;;9.45;5.50;;;21.00;91.10;;;;;;4936938;29;20040;-83
2022/05/05 14:02:53;;;;;;;9.23;5.82;;;21.20;90.90;;;;;;4937362;29;20392;-82
2022/05/05 14:05:19;;;;;;;9.95;6.45;;;21.50;91.10;;;;;;4920458;29;20110;-83
2022/05/05 14:13:13;;;;;;;13.77;8.27;;;21.80;90.90;;;;;;4919528;29;20052;-82
2022/05/05 14:15:38;;;;;;;12.23;7.72;;;21.40;89.60;;;;;;4919114;29;20055;-81
2022/05/05 14:18:05;;;;;;;14.13;8.75;;;21.60;90.10;;;;;;4919097;29;20048;-82
2022/05/05 14:20:31;;;;;;;13.23;7.90;;;21.80;90.10;;;;;;4919262;29;20119;-82
2022/05/05 14:22:57;;;;;;;10.98;7.32;;;22.20;89.30;;;;;;4918862;29;20039;-83
2022/05/05 14:25:23;;;;;;;15.02;8.43;;;22.60;89.30;;;;;;4919059;29;20397;-83
2022/05/05 14:27:49;;;;;;;12.63;8.25;;;22.60;87.70;;;;;;4936108;29;20123;-83
2022/05/05 14:30:15;;;;;;;13.52;8.70;;;22.50;87.30;;;;;;4919860;29;20110;-83
2022/05/05 14:32:42;;;;;;;15.48;8.60;;;22.00;86.80;;;;;;4919328;29;20444;-83
2022/05/05 14:35:08;;;;;;;15.40;9.38;;;21.90;88.00;;;;;;4919589;29;20048;-82
2022/05/05 14:37:33;;;;;;;12.20;8.55;;;22.00;88.60;;;;;;4919540;29;20095;-82
2022/05/05 14:39:59;;;;;;;11.38;8.02;;;22.20;88.80;;;;;;4919711;29;20111;-83
2022/05/05 14:42:25;;;;;;;14.02;7.43;;;22.50;88.30;;;;;;4918830;29;20039;-83
2022/05/05 14:44:50;;;;;;;14.20;6.95;;;22.60;87.40;;;;;;4903511;29;20044;-83
2022/05/05 14:47:16;;;;;;;12.63;8.38;;;22.50;85.00;;;;;;4936471;29;20047;-83
2022/05/05 14:49:44;;;;;;;14.98;9.35;;;22.30;83.70;;;;;;4935905;29;20048;-83
2022/05/05 14:52:11;;;;;;;14.95;9.13;;;22.10;83.30;;;;;;4935575;29;20452;-81
2022/05/05 14:54:37;;;;;;;15.30;9.70;;;22.20;85.50;;;;;;4919182;29;20055;-83
2022/05/05 14:57:04;;;;;;;15.18;9.75;;;22.10;85.60;;;;;;4919405;29;20047;-83
2022/05/05 14:59:29;;;;;;;16.52;10.52;;;22.20;85.70;;;;;;4919111;29;20146;-83
2022/05/05 15:01:55;;;;;;;18.45;10.55;;;22.10;87.00;;;;;;4935723;29;20090;-83
2022/05/05 15:04:20;;;;;;;15.95;10.38;;;22.10;88.00;;;;;;4919220;29;20039;-84
2022/05/05 15:06:48;;;;;;;19.65;11.05;;;21.90;87.40;;;;;;4919387;29;20040;-82
2022/05/05 15:09:14;;;;;;;20.38;9.88;;;21.90;87.10;;;;;;4918574;29;20043;-83
2022/05/05 15:11:40;;;;;;;14.18;9.23;;;21.80;87.20;;;;;;4918724;29;20032;-84
2022/05/05 15:14:05;;;;;;;15.43;9.25;;;21.90;87.40;;;;;;4918675;29;20143;-83
2022/05/05 15:16:31;;;;;;;15.82;9.48;;;21.70;87.30;;;;;;4919175;29;20040;-84
2022/05/05 15:18:57;;;;;;;15.80;9.60;;;21.60;88.20;;;;;;4919024;29;20074;-82
2022/05/05 15:21:22;;;;;;;16.80;9.88;;;21.60;88.30;;;;;;4918765;29;20075;-82
2022/05/05 15:23:48;;;;;;;14.73;9.48;;;21.60;88.10;;;;;;4919326;29;20404;-82
2022/05/05 15:26:13;;;;;;;16.08;9.50;;;21.70;88.90;;;;;;4936925;29;20453;-81
2022/05/05 15:28:40;;;;;;;15.20;9.15;;;21.60;89.40;;;;;;4920807;29;20040;-82
2022/05/05 15:31:07;;;;;;;17.33;9.80;;;21.60;90.00;;;;;;4923477;29;20071;-82
2022/05/05 15:33:33;;;;;;;16.23;9.27;;;21.60;90.10;;;;;;4940522;29;20043;-82
2022/05/05 15:35:59;;;;;;;12.85;8.98;;;21.60;90.50;;;;;;4922883;29;20095;-82
2022/05/05 15:38:28;;;;;;;15.40;9.15;;;21.70;90.70;;;;;;4922635;29;20099;-82
2022/05/05 15:40:54;;;;;;;12.38;8.25;;;21.70;90.20;;;;;;4922631;29;20523;-81
2022/05/05 15:43:20;;;;;;;13.20;8.38;;;21.60;89.80;;;;;;4921789;29;20600;-82
2022/05/05 15:45:46;;;;;;;15.55;8.43;;;21.20;89.20;;;;;;4921594;29;20126;-83
2022/05/05 15:48:11;;;;;;;14.57;7.95;;;20.90;89.90;;;;;;4921874;29;20070;-82
2022/05/05 15:50:37;;;;;;;13.95;8.05;;;20.90;90.00;;;;;;4921647;29;20043;-82
2022/05/05 15:53:04;;;;;;;13.55;7.32;;;20.90;89.90;;;;;;4921558;29;20043;-82
2022/05/05 15:55:29;;;;;;;12.32;8.10;;;20.80;90.00;;;;;;4938672;29;20440;-82
2022/05/05 15:57:55;;;;;;;12.60;7.50;;;20.80;90.10;;;;;;4921452;29;20079;-83
2022/05/05 16:00:24;;;;;;;10.15;6.70;;;20.80;90.10;;;;;;4921037;29;20115;-82
2022/05/05 16:02:51;;;;;;;13.15;6.35;;;20.70;90.40;;;;;;4905756;29;20127;-82
2022/05/05 16:05:18;;;;;;;13.50;6.30;;;20.60;90.10;;;;;;4921501;29;20051;-81
2022/05/05 16:07:45;;;;;;;11.93;7.32;;;20.80;90.00;;;;;;4921277;29;20502;-82
2022/05/05 16:10:11;;;;;;;9.98;6.95;;;20.80;89.70;;;;;;4905366;29;20040;-82
2022/05/05 16:12:37;;;;;;;16.27;8.15;;;20.80;90.30;;;;;;4921144;29;20071;-80
2022/05/05 16:15:04;;;;;;;14.73;7.95;;;20.80;90.80;;;;;;4920962;29;20074;-81
2022/05/05 16:17:29;;;;;;;16.05;8.68;;;20.80;91.00;;;;;;4938129;29;20036;-82
2022/05/05 16:19:56;;;;;;;14.32;8.55;;;20.80;90.70;;;;;;4921037;29;20522;-83
2022/05/05 16:22:22;;;;;;;12.95;8.63;;;20.80;90.70;;;;;;4921708;29;20202;-83
2022/05/05 16:30:16;;;;;;;16.05;9.02;;;20.60;92.10;;;;;;4920632;29;20056;-82